Terminal Aerodrome Forecast
Issued by NWS North Platte, NE

Home | Current Version | Previous Version | Graphics & Text | Print | Product List | Glossary On
Versions: 1 2 3 4 5 6 7 8 9 10 11 12 13 14 15 16 17 18 19
000
FTUS43 KLBF 252200 AAA
TAFVTN
TAF AMD
KVTN 252256Z 2523/2618 30018G23KT P6SM VCSH SCT035 BKN045
      TEMPO 2523/2602 5SM -SHSN OVC025
     FM260200 33017G27KT P6SM VCSH SCT015 OVC025
     FM260600 33022G31KT P6SM OVC025
     FM261300 33014G25KT P6SM BKN035
     FM261700 33011KT P6SM BKN050=

USA.gov is the U.S. government's official web portal to all federal, state and local government web resources and services.